createdAt,value
2022-12-25T00:02:46.844Z,6.15
2022-12-25T00:05:52.772Z,6.18
2022-12-25T00:08:58.685Z,6.31
2022-12-25T00:12:04.065Z,6.23
2022-12-25T00:15:09.744Z,6.27
2022-12-25T00:18:15.550Z,6.30
2022-12-25T00:21:22.495Z,6.38
2022-12-25T00:24:28.300Z,6.36
2022-12-25T00:27:34.567Z,6.48
2022-12-25T00:30:41.564Z,6.34
2022-12-25T00:33:49.019Z,6.41
2022-12-25T00:36:55.101Z,6.36
2022-12-25T00:40:00.638Z,6.46
2022-12-25T00:43:05.955Z,6.68
2022-12-25T00:46:13.448Z,6.53
2022-12-25T00:49:19.339Z,6.41
2022-12-25T00:52:25.064Z,6.51
2022-12-25T00:55:31.604Z,6.47
2022-12-25T00:58:36.931Z,6.36
2022-12-25T01:01:42.152Z,6.35
2022-12-25T01:04:47.778Z,6.40
2022-12-25T01:07:52.890Z,6.51
2022-12-25T01:11:02.618Z,6.44
2022-12-25T01:14:09.812Z,6.52
2022-12-25T01:17:15.191Z,6.74
2022-12-25T01:20:20.449Z,6.61
2022-12-25T01:23:25.986Z,6.67
2022-12-25T01:26:31.387Z,6.60
2022-12-25T01:29:38.258Z,6.51
2022-12-25T01:32:43.890Z,6.66
2022-12-25T01:35:49.015Z,6.56
2022-12-25T01:38:54.987Z,6.52
2022-12-25T01:42:00.594Z,6.64
2022-12-25T01:45:30.998Z,6.66
2022-12-25T01:48:39.925Z,6.57
2022-12-25T01:51:53.575Z,6.45
2022-12-25T01:55:04.676Z,6.53
2022-12-25T01:58:10.185Z,6.67
2022-12-25T02:01:15.788Z,6.43
2022-12-25T02:04:39.870Z,6.41
2022-12-25T02:07:48.762Z,6.30
2022-12-25T02:10:54.099Z,6.10
2022-12-25T02:13:59.397Z,5.77
2022-12-25T02:17:20.630Z,6.01
2022-12-25T02:21:03.488Z,5.79
2022-12-25T02:24:56.298Z,5.55
2022-12-25T02:28:05.291Z,5.55
2022-12-25T02:31:22.072Z,5.49
2022-12-25T02:35:00.921Z,5.53
2022-12-25T02:38:18.928Z,5.49
2022-12-25T02:41:24.359Z,5.81
2022-12-25T02:44:50.293Z,5.73
2022-12-25T02:48:14.362Z,5.71
2022-12-25T02:51:42.516Z,5.73
2022-12-25T02:55:12.073Z,5.76
2022-12-25T02:58:41.595Z,5.59
2022-12-25T03:02:05.343Z,5.45
2022-12-25T03:05:34.538Z,5.23
2022-12-25T03:08:43.421Z,5.06
2022-12-25T03:11:56.367Z,5.22
2022-12-25T03:15:20.745Z,5.02
2022-12-25T03:18:30.857Z,5.05
2022-12-25T03:21:55.036Z,4.88
2022-12-25T03:25:19.692Z,4.94
2022-12-25T03:28:25.080Z,4.84
2022-12-25T03:31:49.163Z,4.97
2022-12-25T03:35:19.103Z,5.17
2022-12-25T03:38:43.496Z,5.31
2022-12-25T03:42:17.707Z,5.39
2022-12-25T03:45:48.354Z,5.31
2022-12-25T03:49:21.541Z,5.26
2022-12-25T03:52:48.590Z,5.22
2022-12-25T03:56:13.422Z,5.24
2022-12-25T03:59:41.653Z,5.14
2022-12-25T04:03:05.836Z,5.10
2022-12-25T04:06:29.753Z,5.19
2022-12-25T04:09:53.384Z,5.07
2022-12-25T04:13:17.636Z,5.04
2022-12-25T04:16:41.747Z,5.10
2022-12-25T04:20:05.492Z,5.10
2022-12-25T04:23:29.412Z,4.98
2022-12-25T04:26:52.921Z,4.98
2022-12-25T04:30:16.556Z,4.81
2022-12-25T04:33:40.152Z,4.82
2022-12-25T04:36:45.559Z,4.85
2022-12-25T04:39:50.955Z,4.88
2022-12-25T04:42:56.751Z,4.73
2022-12-25T04:46:03.036Z,4.73
2022-12-25T04:49:08.930Z,4.70
2022-12-25T04:52:14.330Z,4.64
2022-12-25T04:55:20.198Z,4.81
2022-12-25T04:58:25.587Z,4.59
2022-12-25T05:01:30.902Z,4.66
2022-12-25T05:04:36.208Z,4.65
2022-12-25T05:07:41.873Z,4.52
2022-12-25T05:10:48.528Z,4.27
2022-12-25T05:13:54.073Z,4.33
2022-12-25T05:16:59.711Z,4.53
2022-12-25T05:20:06.770Z,4.60
2022-12-25T05:23:12.559Z,4.61
2022-12-25T05:26:21.501Z,4.48
2022-12-25T05:29:27.137Z,4.56
2022-12-25T05:32:32.662Z,4.53
2022-12-25T05:35:39.797Z,4.43
2022-12-25T05:38:45.321Z,4.59
2022-12-25T05:41:50.710Z,4.58
2022-12-25T05:44:56.598Z,4.62
2022-12-25T05:48:02.212Z,4.61
2022-12-25T05:51:10.421Z,4.67
2022-12-25T05:54:17.252Z,4.69
2022-12-25T05:57:23.102Z,4.84
2022-12-25T06:00:28.507Z,4.84
2022-12-25T06:03:34.381Z,4.84
2022-12-25T06:06:40.251Z,5.05
2022-12-25T06:09:45.945Z,5.01
2022-12-25T06:12:51.631Z,5.09
2022-12-25T06:15:57.120Z,5.22
2022-12-25T06:19:03.018Z,5.12
2022-12-25T06:22:08.539Z,4.90
2022-12-25T06:25:14.547Z,4.94
2022-12-25T06:28:20.598Z,5.13
2022-12-25T06:31:25.909Z,5.20
2022-12-25T06:34:31.070Z,5.18
2022-12-25T06:37:36.362Z,5.33
2022-12-25T06:40:41.725Z,5.40
2022-12-25T06:43:52.492Z,5.46
2022-12-25T06:46:57.687Z,5.48
2022-12-25T06:50:03.011Z,5.49
2022-12-25T06:53:07.987Z,5.50
2022-12-25T06:56:16.269Z,5.48
2022-12-25T06:59:21.971Z,5.47
2022-12-25T07:02:28.043Z,5.51
2022-12-25T07:05:33.307Z,5.56
2022-12-25T07:08:38.859Z,5.55
2022-12-25T07:11:45.593Z,5.65
2022-12-25T07:14:53.949Z,5.64
2022-12-25T07:17:59.271Z,5.71
2022-12-25T07:21:17.698Z,5.78
2022-12-25T07:24:24.097Z,5.76
2022-12-25T07:27:30.213Z,5.52
2022-12-25T07:30:35.572Z,5.37
2022-12-25T07:33:42.189Z,5.69
2022-12-25T07:36:47.897Z,5.78
2022-12-25T07:39:53.315Z,5.64
2022-12-25T07:42:58.309Z,5.81
2022-12-25T07:46:04.147Z,5.86
2022-12-25T07:49:11.286Z,5.78
2022-12-25T07:52:16.593Z,5.89
2022-12-25T07:55:21.790Z,5.93
2022-12-25T07:58:27.257Z,6.10
2022-12-25T08:01:32.589Z,6.19
2022-12-25T08:04:38.027Z,6.00
2022-12-25T08:07:43.188Z,6.05
2022-12-25T08:10:48.640Z,6.16
2022-12-25T08:13:53.811Z,6.20
2022-12-25T08:16:59.047Z,6.18
2022-12-25T08:20:04.755Z,6.05
2022-12-25T08:23:10.168Z,6.09
2022-12-25T08:26:18.971Z,6.37
2022-12-25T08:29:24.539Z,6.54
2022-12-25T08:32:33.245Z,6.61
2022-12-25T08:35:38.170Z,6.71
2022-12-25T08:38:44.062Z,6.91
2022-12-25T08:41:49.747Z,6.90
2022-12-25T08:44:55.367Z,6.96
2022-12-25T08:48:00.637Z,7.03
2022-12-25T08:51:14.825Z,7.03
2022-12-25T08:54:19.997Z,6.98
2022-12-25T08:57:24.999Z,6.97
2022-12-25T09:00:29.928Z,7.06
2022-12-25T09:03:35.950Z,7.09
2022-12-25T09:06:41.797Z,7.08
2022-12-25T09:09:46.946Z,6.93
2022-12-25T09:12:52.290Z,7.10
2022-12-25T09:15:57.245Z,7.32
2022-12-25T09:19:02.784Z,7.17
2022-12-25T09:22:08.234Z,7.05
2022-12-25T09:25:13.308Z,7.17
2022-12-25T09:28:19.106Z,7.12
2022-12-25T09:31:24.956Z,7.46
2022-12-25T09:34:30.048Z,7.41
2022-12-25T09:37:35.589Z,7.49
2022-12-25T09:40:41.651Z,7.62
2022-12-25T09:44:02.446Z,7.75
2022-12-25T09:47:20.802Z,7.66
2022-12-25T09:50:42.697Z,7.60
2022-12-25T09:54:00.512Z,7.59
2022-12-25T09:57:10.310Z,7.86
2022-12-25T10:00:19.124Z,8.09
2022-12-25T10:03:33.471Z,8.11
2022-12-25T10:06:53.684Z,8.11
2022-12-25T10:10:15.305Z,8.16
2022-12-25T10:13:42.600Z,8.19
2022-12-25T10:17:00.119Z,8.19
2022-12-25T10:20:59.902Z,8.08
2022-12-25T10:24:25.871Z,8.02
2022-12-25T10:27:39.355Z,8.26
2022-12-25T10:30:45.567Z,8.31
2022-12-25T10:33:53.167Z,8.42
2022-12-25T10:36:59.049Z,8.46
2022-12-25T10:40:28.156Z,8.26
2022-12-25T10:44:42.731Z,8.57
2022-12-25T10:47:54.968Z,8.44
2022-12-25T10:51:04.976Z,8.51
2022-12-25T10:54:29.342Z,8.63
2022-12-25T10:57:45.727Z,8.91
2022-12-25T11:01:04.070Z,8.96
2022-12-25T11:04:21.936Z,9.07
2022-12-25T11:07:27.408Z,9.14
2022-12-25T11:10:44.533Z,9.04
2022-12-25T11:13:54.301Z,9.00
2022-12-25T11:17:09.835Z,9.00
2022-12-25T11:20:19.971Z,9.16
2022-12-25T11:23:27.805Z,9.04
2022-12-25T11:26:48.050Z,9.15
2022-12-25T11:29:59.259Z,8.99
2022-12-25T11:33:11.670Z,9.36
2022-12-25T11:36:20.621Z,9.59
2022-12-25T11:39:35.698Z,9.60
2022-12-25T11:42:47.907Z,9.72
2022-12-25T11:45:59.881Z,9.71
2022-12-25T11:49:14.546Z,9.81
2022-12-25T11:52:22.141Z,9.84
2022-12-25T11:55:43.089Z,9.91
2022-12-25T11:58:53.186Z,9.96
2022-12-25T12:02:12.173Z,9.96
2022-12-25T12:05:26.415Z,9.95
2022-12-25T12:08:33.285Z,10.08
2022-12-25T12:11:48.079Z,10.14
2022-12-25T12:15:13.239Z,10.15
2022-12-25T12:18:27.873Z,10.39
2022-12-25T12:21:33.122Z,10.48
2022-12-25T12:24:45.008Z,10.41
2022-12-25T12:28:04.925Z,10.49
2022-12-25T12:31:11.144Z,10.54
2022-12-25T12:34:31.611Z,10.52
2022-12-25T12:37:40.801Z,10.68
2022-12-25T12:40:56.573Z,10.75
2022-12-25T12:44:05.199Z,10.59
2022-12-25T12:47:29.830Z,10.64
2022-12-25T12:50:41.253Z,10.77
2022-12-25T12:53:46.854Z,10.81
2022-12-25T12:57:07.721Z,10.81
2022-12-25T13:00:18.884Z,10.69
2022-12-25T13:03:33.162Z,10.64
2022-12-25T13:06:47.809Z,10.69
2022-12-25T13:10:23.191Z,10.65
2022-12-25T13:13:45.787Z,10.66
2022-12-25T13:16:54.524Z,10.54
2022-12-25T13:20:01.570Z,10.56
2022-12-25T13:23:28.103Z,10.48
2022-12-25T13:26:33.846Z,10.53
2022-12-25T13:29:39.466Z,10.58
2022-12-25T13:32:46.258Z,10.50
2022-12-25T13:35:52.003Z,10.50
2022-12-25T13:38:59.387Z,10.42
2022-12-25T13:42:09.851Z,10.43
2022-12-25T13:45:26.210Z,10.43
2022-12-25T13:48:31.733Z,10.40
2022-12-25T13:51:36.952Z,10.45
2022-12-25T13:54:55.858Z,10.45
2022-12-25T13:58:06.391Z,10.43
2022-12-25T14:01:17.169Z,10.43
2022-12-25T14:04:24.819Z,10.47
2022-12-25T14:07:30.589Z,10.43
2022-12-25T14:10:39.854Z,10.41
2022-12-25T14:13:47.649Z,10.37
2022-12-25T14:16:56.667Z,10.34
2022-12-25T14:20:07.858Z,10.32
2022-12-25T14:23:16.489Z,10.30
2022-12-25T14:26:28.561Z,10.31
2022-12-25T14:29:45.608Z,10.24
2022-12-25T14:32:54.379Z,10.24
2022-12-25T14:35:59.608Z,10.22
2022-12-25T14:39:07.590Z,10.19
2022-12-25T14:42:24.679Z,10.17
2022-12-25T14:45:36.353Z,10.10
2022-12-25T14:48:41.496Z,10.13
2022-12-25T14:51:46.873Z,10.10
2022-12-25T14:55:07.462Z,10.13
2022-12-25T14:58:22.027Z,10.09
2022-12-25T15:01:41.932Z,10.09
2022-12-25T15:04:47.473Z,10.05
2022-12-25T15:08:23.256Z,9.98
2022-12-25T15:11:29.275Z,9.95
2022-12-25T15:14:38.621Z,9.93
2022-12-25T15:17:43.774Z,9.92
2022-12-25T15:20:52.804Z,9.89
2022-12-25T15:24:00.174Z,9.92
2022-12-25T15:27:12.849Z,9.88
2022-12-25T15:30:18.963Z,9.89
2022-12-25T15:33:24.102Z,9.90
2022-12-25T15:36:29.313Z,9.90
2022-12-25T15:39:35.046Z,9.88
2022-12-25T15:42:41.558Z,9.85
2022-12-25T15:45:46.952Z,9.81
2022-12-25T15:48:51.851Z,9.78
2022-12-25T15:51:57.016Z,9.78
2022-12-25T15:55:02.052Z,9.78
2022-12-25T15:58:11.329Z,9.73
2022-12-25T16:01:19.212Z,9.65
2022-12-25T16:04:26.793Z,9.65
2022-12-25T16:07:33.783Z,9.62
2022-12-25T16:10:40.500Z,9.61
2022-12-25T16:13:45.982Z,9.59
2022-12-25T16:16:51.398Z,9.60
2022-12-25T16:19:56.816Z,9.56
2022-12-25T16:23:01.743Z,9.57
2022-12-25T16:26:06.952Z,9.55
2022-12-25T16:29:12.111Z,9.53
2022-12-25T16:32:18.598Z,9.50
2022-12-25T16:35:23.896Z,9.52
2022-12-25T16:38:29.286Z,9.56
2022-12-25T16:41:34.669Z,9.56
2022-12-25T16:44:39.825Z,9.57
2022-12-25T16:47:44.884Z,9.56
2022-12-25T16:50:50.048Z,9.56
2022-12-25T16:53:55.901Z,9.52
2022-12-25T16:57:01.379Z,9.52
2022-12-25T17:00:07.400Z,9.52
2022-12-25T17:03:13.033Z,9.50
2022-12-25T17:06:28.616Z,9.47
2022-12-25T17:09:37.519Z,9.43
2022-12-25T17:12:45.931Z,9.50
2022-12-25T17:15:51.438Z,9.48
2022-12-25T17:19:02.666Z,9.48
2022-12-25T17:22:08.286Z,9.47
2022-12-25T17:25:13.667Z,9.43
2022-12-25T17:28:18.740Z,9.40
2022-12-25T17:31:24.750Z,9.42
2022-12-25T17:34:30.192Z,9.44
2022-12-25T17:37:37.626Z,9.39
2022-12-25T17:40:44.439Z,9.39
2022-12-25T17:43:49.883Z,9.34
2022-12-25T17:46:55.019Z,9.36
2022-12-25T17:50:00.038Z,9.37
2022-12-25T17:53:05.509Z,9.34
2022-12-25T17:56:11.220Z,9.38
2022-12-25T17:59:18.762Z,9.29
2022-12-25T18:02:24.625Z,9.31
2022-12-25T18:05:30.341Z,9.28
2022-12-25T18:08:39.508Z,9.18
2022-12-25T18:11:45.581Z,9.24
2022-12-25T18:14:50.818Z,9.28
2022-12-25T18:17:56.069Z,9.34
2022-12-25T18:21:02.390Z,9.34
2022-12-25T18:24:08.668Z,9.31
2022-12-25T18:27:14.080Z,9.30
2022-12-25T18:30:20.101Z,9.28
2022-12-25T18:33:25.658Z,9.32
2022-12-25T18:36:31.098Z,9.31
2022-12-25T18:39:36.598Z,9.29
2022-12-25T18:42:43.642Z,9.28
2022-12-25T18:45:57.826Z,9.28
2022-12-25T18:49:03.467Z,9.31
2022-12-25T18:52:48.459Z,9.30
2022-12-25T18:55:33.938Z,9.28
2022-12-25T18:58:39.626Z,9.29
2022-12-25T19:01:44.931Z,9.28
2022-12-25T19:04:50.518Z,9.29
2022-12-25T19:07:55.949Z,9.25
2022-12-25T19:11:01.343Z,9.28
2022-12-25T19:14:06.822Z,9.24
2022-12-25T19:17:12.383Z,9.22
2022-12-25T19:20:18.022Z,9.22
2022-12-25T19:23:23.261Z,9.16
2022-12-25T19:26:28.585Z,9.18
2022-12-25T19:29:34.560Z,9.21
2022-12-25T19:32:39.833Z,9.16
2022-12-25T19:35:45.082Z,9.14
2022-12-25T19:38:50.990Z,9.18
2022-12-25T19:41:56.011Z,9.15
2022-12-25T19:45:01.187Z,9.13
2022-12-25T19:48:06.592Z,9.10
2022-12-25T19:51:21.011Z,9.07
2022-12-25T19:54:26.295Z,9.09
2022-12-25T19:57:31.369Z,9.09
2022-12-25T20:00:36.556Z,9.02
2022-12-25T20:03:46.462Z,9.08
2022-12-25T20:06:52.190Z,9.00
2022-12-25T20:09:57.559Z,9.02
2022-12-25T20:13:02.881Z,9.01
2022-12-25T20:16:10.570Z,9.00
2022-12-25T20:19:15.973Z,9.02
2022-12-25T20:22:21.237Z,8.95
2022-12-25T20:25:26.426Z,9.01
2022-12-25T20:28:34.060Z,9.01
2022-12-25T20:31:39.400Z,8.96
2022-12-25T20:34:44.854Z,9.00
2022-12-25T20:37:50.341Z,8.92
2022-12-25T20:44:31.110Z,8.96
2022-12-25T20:47:36.441Z,8.93
2022-12-25T20:50:41.537Z,8.98
2022-12-25T20:53:48.050Z,8.97
2022-12-25T20:56:53.064Z,8.98
2022-12-25T20:59:58.199Z,8.97
2022-12-25T21:03:03.688Z,8.97
2022-12-25T21:06:11.682Z,9.04
2022-12-25T21:09:16.848Z,9.04
2022-12-25T21:12:22.077Z,9.01
2022-12-25T21:15:27.275Z,8.97
2022-12-25T21:18:32.618Z,8.96
2022-12-25T21:21:42.955Z,8.94
2022-12-25T21:24:52.189Z,8.98
2022-12-25T21:27:57.379Z,9.01
2022-12-25T21:31:04.286Z,8.97
2022-12-25T21:34:09.562Z,8.95
2022-12-25T21:37:14.682Z,8.94
2022-12-25T21:40:20.008Z,8.92
2022-12-25T21:43:25.424Z,8.85
2022-12-25T21:46:31.003Z,8.88
2022-12-25T21:49:54.795Z,8.93
2022-12-25T21:53:00.020Z,8.92
2022-12-25T21:56:05.983Z,8.90
2022-12-25T21:59:17.914Z,8.94
2022-12-25T22:02:23.232Z,8.91
2022-12-25T22:05:47.369Z,8.89
2022-12-25T22:08:52.752Z,8.94
2022-12-25T22:12:16.834Z,8.90
2022-12-25T22:15:21.943Z,8.91
2022-12-25T22:18:45.542Z,8.92
2022-12-25T22:21:51.725Z,8.90
2022-12-25T22:24:59.773Z,8.88
2022-12-25T22:28:05.002Z,8.89
2022-12-25T22:31:10.337Z,8.90
2022-12-25T22:34:16.381Z,8.93
2022-12-25T22:37:23.361Z,8.92
2022-12-25T22:40:28.710Z,8.92
2022-12-25T22:44:14.501Z,8.92
2022-12-25T22:47:00.042Z,8.88
2022-12-25T22:50:06.304Z,8.93
2022-12-25T22:53:11.560Z,8.91
2022-12-25T22:56:17.020Z,8.95
2022-12-25T22:59:23.337Z,8.99
2022-12-25T23:02:30.451Z,8.91
2022-12-25T23:05:36.552Z,8.95
2022-12-25T23:08:41.778Z,8.90
2022-12-25T23:11:46.852Z,8.90
2022-12-25T23:14:52.075Z,8.86
2022-12-25T23:18:16.362Z,8.87
2022-12-25T23:21:39.630Z,8.86
2022-12-25T23:25:03.536Z,8.87
2022-12-25T23:28:09.131Z,8.83
2022-12-25T23:31:17.880Z,8.76
2022-12-25T23:34:23.794Z,8.87
2022-12-25T23:37:29.484Z,8.85
2022-12-25T23:40:36.570Z,8.80
2022-12-25T23:43:41.980Z,8.78
2022-12-25T23:46:52.728Z,8.80
2022-12-25T23:49:59.331Z,8.83
2022-12-25T23:53:04.873Z,8.79
2022-12-25T23:56:10.706Z,8.80
2022-12-25T23:59:16.157Z,8.81
